Time;durP1;ratioP1;P1;durP2;ratioP2;P2;SDS_P1;SDS_P2;PMS_P1;PMS_P2;Temp;Humidity;BMP_temperature;BMP_pressure;BME280_temperature;BME280_humidity;BME280_pressure;Samples;Min_cycle;Max_cycle;Signal;HPM_P1;HPM_P2
2024/01/14 00:02:18;;;;;;;17.42;2.15;;;4.30;99.90;;;;;;5061936;28;20052;-81
2024/01/14 00:04:44;;;;;;;14.35;2.00;;;4.30;99.90;;;;;;5051607;28;20488;-81
2024/01/14 00:07:10;;;;;;;13.48;2.17;;;4.30;99.90;;;;;;5051537;28;20094;-80
2024/01/14 00:09:36;;;;;;;11.95;1.50;;;4.30;99.90;;;;;;5034901;28;20092;-80
2024/01/14 00:12:03;;;;;;;11.65;1.90;;;4.30;99.90;;;;;;5051396;28;20060;-81
2024/01/14 00:14:29;;;;;;;17.52;1.73;;;4.40;99.90;;;;;;5057036;28;20361;-82
2024/01/14 00:16:54;;;;;;;9.65;1.55;;;4.40;99.90;;;;;;5072056;28;20056;-81
2024/01/14 00:19:20;;;;;;;11.93;1.77;;;4.40;99.90;;;;;;5072127;28;20052;-81
2024/01/14 00:21:46;;;;;;;15.10;1.50;;;4.60;99.90;;;;;;5057975;28;20060;-81
2024/01/14 00:24:11;;;;;;;19.10;1.75;;;4.80;99.90;;;;;;5039465;28;20045;-80
2024/01/14 00:26:37;;;;;;;13.07;2.25;;;4.40;99.90;;;;;;5071902;28;20072;-81
2024/01/14 00:29:03;;;;;;;10.98;1.73;;;4.40;99.90;;;;;;5071318;28;20041;-82
2024/01/14 00:31:29;;;;;;;14.73;1.98;;;4.80;99.90;;;;;;5072176;28;20186;-82
2024/01/14 00:33:54;;;;;;;18.55;2.15;;;4.40;99.90;;;;;;5070252;28;20128;-81
2024/01/14 00:36:20;;;;;;;12.73;1.65;;;4.40;99.90;;;;;;5051104;28;20128;-81
2024/01/14 00:38:46;;;;;;;8.52;1.45;;;4.40;99.90;;;;;;5051737;28;20041;-81
2024/01/14 00:41:12;;;;;;;15.43;2.33;;;4.40;99.90;;;;;;5050030;28;20060;-80
2024/01/14 00:43:38;;;;;;;10.23;2.00;;;4.40;99.90;;;;;;5051522;28;20052;-81
2024/01/14 00:46:04;;;;;;;14.43;1.52;;;4.50;99.90;;;;;;5050115;28;20049;-81
2024/01/14 00:48:30;;;;;;;10.25;1.65;;;4.40;99.90;;;;;;5049742;28;20688;-81
2024/01/14 00:50:56;;;;;;;15.45;2.28;;;4.40;99.90;;;;;;5051234;28;20049;-80
2024/01/14 00:53:21;;;;;;;18.95;1.98;;;4.30;99.90;;;;;;5049967;28;20455;-82
2024/01/14 00:55:47;;;;;;;17.13;1.60;;;4.30;99.90;;;;;;5053121;28;20504;-81
2024/01/14 00:58:13;;;;;;;12.02;1.48;;;4.30;99.90;;;;;;5051241;28;20041;-81
2024/01/14 01:00:38;;;;;;;6.75;1.00;;;4.30;99.90;;;;;;5050999;28;20052;-81
2024/01/14 01:03:05;;;;;;;5.40;0.70;;;4.30;99.90;;;;;;5051276;28;20088;-81
2024/01/14 01:05:30;;;;;;;12.27;1.95;;;4.20;99.90;;;;;;5051323;28;20083;-82
2024/01/14 01:07:56;;;;;;;10.60;1.30;;;4.20;99.90;;;;;;5052053;28;20489;-81
2024/01/14 01:10:22;;;;;;;6.68;0.80;;;4.20;99.90;;;;;;5052712;28;20053;-82
2024/01/14 01:12:47;;;;;;;9.70;1.02;;;4.20;99.90;;;;;;5067574;28;20046;-82
2024/01/14 01:15:13;;;;;;;8.93;1.58;;;4.20;99.90;;;;;;5062725;28;20481;-80
2024/01/14 01:17:39;;;;;;;13.18;1.48;;;4.20;99.90;;;;;;5038444;28;20048;-82
2024/01/14 01:20:07;;;;;;;9.98;1.02;;;4.20;99.90;;;;;;5055037;28;20621;-82
2024/01/14 01:22:33;;;;;;;7.88;1.02;;;4.20;99.90;;;;;;5062977;28;20053;-82
2024/01/14 01:24:59;;;;;;;9.70;1.02;;;4.20;99.90;;;;;;5065027;28;20099;-82
2024/01/14 01:27:25;;;;;;;12.10;2.25;;;4.20;99.90;;;;;;5056223;28;20479;-82
2024/01/14 01:29:51;;;;;;;11.23;1.48;;;4.20;99.90;;;;;;5054601;28;20045;-82
2024/01/14 01:32:16;;;;;;;9.40;1.20;;;4.20;99.90;;;;;;5054790;28;20095;-84
2024/01/14 01:34:43;;;;;;;13.23;1.30;;;4.20;99.90;;;;;;5059772;28;20036;-83
2024/01/14 01:37:09;;;;;;;13.20;1.20;;;4.90;99.90;;;;;;5074686;28;20562;-82
2024/01/14 01:39:35;;;;;;;14.20;1.33;;;4.20;99.90;;;;;;5074348;28;20048;-81
2024/01/14 01:42:00;;;;;;;12.25;1.92;;;4.20;99.90;;;;;;5074345;28;20452;-80
2024/01/14 01:44:26;;;;;;;8.70;1.02;;;4.20;99.90;;;;;;5073912;28;20051;-83
2024/01/14 01:46:53;;;;;;;12.02;1.20;;;4.20;99.90;;;;;;5074540;28;20388;-82
2024/01/14 01:49:19;;;;;;;8.15;1.27;;;4.20;99.90;;;;;;5074399;28;20365;-83
2024/01/14 01:51:47;;;;;;;11.60;1.10;;;4.50;99.90;;;;;;5075515;28;20190;-82
2024/01/14 01:54:16;;;;;;;11.15;1.00;;;4.30;99.90;;;;;;5072518;28;20079;-82
2024/01/14 01:56:42;;;;;;;6.72;1.00;;;4.10;99.90;;;;;;5074399;28;20056;-82
2024/01/14 01:59:09;;;;;;;7.70;1.30;;;4.10;99.90;;;;;;5073705;28;20044;-82
2024/01/14 02:01:34;;;;;;;5.97;0.93;;;4.00;99.90;;;;;;5074305;28;20066;-82
2024/01/14 02:04:01;;;;;;;5.80;1.05;;;4.00;99.90;;;;;;5073768;28;20505;-82
2024/01/14 02:06:27;;;;;;;6.63;1.35;;;3.90;99.90;;;;;;5073783;28;20500;-81
2024/01/14 02:08:54;;;;;;;5.47;0.80;;;3.90;99.90;;;;;;5073670;28;20052;-80
2024/01/14 02:11:20;;;;;;;6.47;0.75;;;3.90;99.90;;;;;;5063320;28;20055;-82
2024/01/14 02:13:46;;;;;;;7.03;1.50;;;3.80;99.90;;;;;;5064894;28;20480;-81
2024/01/14 02:16:12;;;;;;;6.10;0.82;;;3.80;99.90;;;;;;5053922;28;20048;-81
2024/01/14 02:18:38;;;;;;;5.75;0.80;;;3.90;99.90;;;;;;5037014;28;20045;-82
2024/01/14 02:21:04;;;;;;;8.13;1.52;;;3.70;99.90;;;;;;5053704;28;20052;-82
2024/01/14 02:23:35;;;;;;;7.05;0.80;;;3.70;99.90;;;;;;5053285;28;20488;-82
2024/01/14 02:26:00;;;;;;;6.72;0.80;;;3.90;99.90;;;;;;5053582;28;20504;-84
2024/01/14 02:28:26;;;;;;;10.48;0.93;;;3.60;99.90;;;;;;5053718;28;20055;-82
2024/01/14 02:30:53;;;;;;;8.05;1.00;;;3.60;99.90;;;;;;5053105;28;20102;-82
2024/01/14 02:33:20;;;;;;;11.02;1.17;;;3.60;99.90;;;;;;5052762;28;20475;-82
2024/01/14 02:35:45;;;;;;;13.90;1.38;;;3.50;99.90;;;;;;5053032;28;20115;-81
2024/01/14 02:38:11;;;;;;;7.82;1.10;;;3.50;99.90;;;;;;5053382;28;20088;-81
2024/01/14 02:40:37;;;;;;;14.30;1.08;;;3.50;99.90;;;;;;5052990;28;20080;-81
2024/01/14 02:43:03;;;;;;;12.23;1.27;;;3.50;99.90;;;;;;5053054;28;20048;-80
2024/01/14 02:45:32;;;;;;;8.73;1.10;;;3.50;99.90;;;;;;5053350;28;20094;-83
2024/01/14 02:47:58;;;;;;;8.15;1.10;;;3.50;99.90;;;;;;5053120;28;20425;-81
2024/01/14 02:50:23;;;;;;;13.13;1.27;;;4.00;99.90;;;;;;5053229;28;20151;-81
2024/01/14 02:52:49;;;;;;;14.55;1.33;;;3.50;99.90;;;;;;5053405;28;20472;-83
2024/01/14 02:55:15;;;;;;;8.77;0.82;;;3.60;99.90;;;;;;5053019;28;20088;-82
2024/01/14 02:57:40;;;;;;;12.98;2.17;;;3.50;99.90;;;;;;5053334;28;20107;-82
2024/01/14 03:00:07;;;;;;;12.75;0.90;;;3.50;99.90;;;;;;5052788;28;20416;-82
2024/01/14 03:02:33;;;;;;;13.48;1.23;;;3.50;99.90;;;;;;5052888;28;20064;-81
2024/01/14 03:04:59;;;;;;;9.05;1.02;;;3.50;99.90;;;;;;5052917;28;20049;-83
2024/01/14 03:07:24;;;;;;;12.73;1.30;;;3.60;99.90;;;;;;5052726;28;20051;-83
2024/01/14 03:09:50;;;;;;;8.07;1.25;;;3.60;99.90;;;;;;5052357;28;20388;-83
2024/01/14 03:12:15;;;;;;;17.20;1.42;;;3.60;99.90;;;;;;5052683;28;20366;-80
2024/01/14 03:14:41;;;;;;;7.70;1.42;;;3.60;99.90;;;;;;5052588;28;20049;-81
2024/01/14 03:17:07;;;;;;;10.20;1.17;;;3.60;99.90;;;;;;5052600;28;20045;-82
2024/01/14 03:19:32;;;;;;;12.32;1.65;;;3.60;99.90;;;;;;5054100;28;20477;-83
2024/01/14 03:22:00;;;;;;;13.07;1.40;;;3.60;99.90;;;;;;5052256;28;20053;-83
2024/01/14 03:24:26;;;;;;;9.05;1.23;;;3.60;99.90;;;;;;5052182;28;20132;-81
2024/01/14 03:26:51;;;;;;;7.47;1.10;;;3.50;99.90;;;;;;5052255;28;20127;-84
2024/01/14 03:29:17;;;;;;;8.32;0.90;;;3.60;99.90;;;;;;5052390;28;20080;-82
2024/01/14 03:31:44;;;;;;;13.57;1.83;;;3.50;99.90;;;;;;5052470;28;20063;-83
2024/01/14 03:34:10;;;;;;;12.95;1.67;;;3.50;99.90;;;;;;5052034;28;20488;-83
2024/01/14 03:36:35;;;;;;;10.80;1.67;;;3.90;99.90;;;;;;5051943;28;20084;-81
2024/01/14 03:39:03;;;;;;;11.68;1.42;;;3.70;99.90;;;;;;5053690;28;20128;-83
2024/01/14 03:41:30;;;;;;;11.30;1.73;;;3.50;99.90;;;;;;5052035;28;20036;-83
2024/01/14 03:43:56;;;;;;;9.23;1.65;;;3.50;99.90;;;;;;5062145;28;20064;-83
2024/01/14 03:46:22;;;;;;;7.97;1.63;;;3.50;99.90;;;;;;5051712;28;20456;-83
2024/01/14 03:48:47;;;;;;;12.82;1.73;;;3.50;99.90;;;;;;5052351;28;20123;-84
2024/01/14 03:51:13;;;;;;;16.63;1.73;;;3.70;99.90;;;;;;5051597;28;20492;-82
2024/01/14 03:53:39;;;;;;;16.90;1.45;;;3.70;99.90;;;;;;5052021;28;20041;-83
2024/01/14 03:56:04;;;;;;;17.13;2.40;;;3.50;99.90;;;;;;5052276;28;20051;-82
2024/01/14 03:58:30;;;;;;;14.55;1.77;;;3.50;99.90;;;;;;5051982;28;20045;-84
2024/01/14 04:00:56;;;;;;;14.27;1.50;;;3.50;99.90;;;;;;5052006;28;20151;-83
2024/01/14 04:03:22;;;;;;;12.75;2.17;;;3.50;99.90;;;;;;5035074;28;20128;-83
2024/01/14 04:05:47;;;;;;;6.45;1.27;;;3.50;99.90;;;;;;5051399;28;20126;-83
2024/01/14 04:08:13;;;;;;;16.67;2.20;;;3.50;99.90;;;;;;5051564;28;20041;-82
2024/01/14 04:10:39;;;;;;;15.52;1.98;;;3.50;99.90;;;;;;5051353;28;20451;-83
2024/01/14 04:13:04;;;;;;;14.27;2.35;;;3.40;99.90;;;;;;5034922;28;20049;-83
2024/01/14 04:15:30;;;;;;;20.13;1.85;;;3.40;99.90;;;;;;5055223;28;20111;-83
2024/01/14 04:17:56;;;;;;;8.95;1.63;;;3.40;99.90;;;;;;5063972;28;20045;-82
2024/01/14 04:20:22;;;;;;;15.20;2.15;;;3.30;99.90;;;;;;5052054;28;20052;-83
2024/01/14 04:22:47;;;;;;;6.78;1.02;;;3.30;99.90;;;;;;5051166;28;20053;-83
2024/01/14 04:25:13;;;;;;;10.20;1.40;;;3.30;99.90;;;;;;5052571;28;20045;-81
2024/01/14 04:27:38;;;;;;;12.60;1.63;;;3.30;99.90;;;;;;5054794;28;20052;-82
2024/01/14 04:30:05;;;;;;;11.50;1.48;;;3.30;99.90;;;;;;5051384;28;20392;-83
2024/01/14 04:32:31;;;;;;;12.75;2.63;;;3.20;99.90;;;;;;5034964;28;20057;-83
2024/01/14 04:34:56;;;;;;;16.10;2.13;;;3.30;99.90;;;;;;5051529;28;20045;-83
2024/01/14 04:37:22;;;;;;;10.82;1.38;;;3.20;99.90;;;;;;5051192;28;20136;-83
2024/01/14 04:39:48;;;;;;;11.88;1.52;;;3.20;99.90;;;;;;5051399;28;20051;-83
2024/01/14 04:42:13;;;;;;;8.50;2.42;;;3.20;99.90;;;;;;5051119;28;20081;-82
2024/01/14 04:44:39;;;;;;;9.43;1.38;;;3.10;99.90;;;;;;5062727;28;20139;-83
2024/01/14 04:47:04;;;;;;;13.85;2.25;;;3.10;99.90;;;;;;5056322;28;20477;-82
2024/01/14 04:49:30;;;;;;;11.45;2.25;;;3.00;99.90;;;;;;5055491;28;20123;-83
2024/01/14 04:51:56;;;;;;;15.75;1.85;;;3.00;99.90;;;;;;5054892;28;20052;-83
2024/01/14 04:54:21;;;;;;;17.13;1.75;;;3.40;99.90;;;;;;5055017;28;20041;-83
2024/01/14 04:56:47;;;;;;;13.35;1.30;;;3.00;99.90;;;;;;5055423;28;20124;-83
2024/01/14 04:59:13;;;;;;;14.63;2.03;;;2.90;99.90;;;;;;5055093;28;20089;-83
2024/01/14 05:01:39;;;;;;;19.45;1.52;;;3.10;99.90;;;;;;5054683;28;20041;-82
2024/01/14 05:04:05;;;;;;;14.00;2.00;;;2.90;99.90;;;;;;5053783;28;20119;-82
2024/01/14 05:06:33;;;;;;;7.68;1.40;;;2.90;99.90;;;;;;5062833;28;20319;-82
2024/01/14 05:08:58;;;;;;;7.28;0.95;;;2.90;99.90;;;;;;5073122;28;20074;-83
2024/01/14 05:11:24;;;;;;;15.27;1.77;;;3.00;99.90;;;;;;5067456;28;20466;-82
2024/01/14 05:13:49;;;;;;;17.85;1.98;;;3.10;99.90;;;;;;5053022;28;20442;-83
2024/01/14 05:16:15;;;;;;;11.25;1.33;;;3.00;99.90;;;;;;5053213;28;20049;-81
2024/01/14 05:18:41;;;;;;;15.02;1.90;;;2.90;99.90;;;;;;5065875;28;20044;-83
2024/01/14 05:21:07;;;;;;;15.70;2.17;;;2.90;99.90;;;;;;5073453;28;20040;-83
2024/01/14 05:23:32;;;;;;;14.48;1.60;;;2.80;99.90;;;;;;5054751;28;20049;-83
2024/01/14 05:26:02;;;;;;;13.80;2.22;;;2.80;99.90;;;;;;5055923;28;20084;-82
2024/01/14 05:28:27;;;;;;;14.20;1.48;;;2.80;99.90;;;;;;5074679;28;20045;-82
2024/01/14 05:30:53;;;;;;;18.42;2.75;;;2.70;99.90;;;;;;5074712;28;20411;-80
2024/01/14 05:33:19;;;;;;;11.30;1.55;;;2.80;99.90;;;;;;5073935;28;20130;-82
2024/01/14 05:35:45;;;;;;;15.80;1.73;;;2.80;99.90;;;;;;5073410;28;20045;-82
2024/01/14 05:38:10;;;;;;;8.80;1.42;;;2.70;99.90;;;;;;5072871;28;20059;-82
2024/01/14 05:40:36;;;;;;;19.42;1.90;;;3.00;99.90;;;;;;5073168;28;20041;-81
2024/01/14 05:43:02;;;;;;;13.07;1.50;;;2.70;99.90;;;;;;5072523;28;20040;-81
2024/01/14 05:45:27;;;;;;;21.02;1.85;;;2.70;99.90;;;;;;5061649;28;20075;-80
2024/01/14 05:47:53;;;;;;;21.00;1.90;;;2.70;99.90;;;;;;5066765;28;20124;-80
2024/01/14 05:50:18;;;;;;;17.20;2.10;;;2.70;99.90;;;;;;5056164;28;20052;-80
2024/01/14 05:52:44;;;;;;;20.35;1.80;;;2.70;99.90;;;;;;5054152;28;20110;-81
2024/01/14 05:55:10;;;;;;;13.32;1.88;;;2.70;99.90;;;;;;5053445;28;20052;-82
2024/01/14 05:57:36;;;;;;;10.38;1.80;;;2.70;99.90;;;;;;5062820;28;20080;-80
2024/01/14 06:00:02;;;;;;;17.70;2.03;;;2.70;99.90;;;;;;5072178;28;20127;-87
2024/01/14 06:02:28;;;;;;;11.30;1.50;;;2.70;99.90;;;;;;5057176;28;20059;-84
2024/01/14 06:04:53;;;;;;;11.98;1.42;;;2.70;99.90;;;;;;5064889;28;20128;-83
2024/01/14 06:07:19;;;;;;;16.50;1.85;;;2.70;99.90;;;;;;5054251;28;20045;-84
2024/01/14 06:09:45;;;;;;;18.00;2.00;;;2.70;99.90;;;;;;5069247;28;20079;-82
2024/01/14 06:12:10;;;;;;;19.80;2.22;;;2.70;99.90;;;;;;5053674;28;20053;-84
2024/01/14 06:14:36;;;;;;;15.57;1.88;;;2.80;99.90;;;;;;5053228;28;20078;-80
2024/01/14 06:17:03;;;;;;;27.10;2.30;;;2.80;99.90;;;;;;5053591;28;20505;-84
2024/01/14 06:19:29;;;;;;;15.20;1.92;;;2.80;99.90;;;;;;5053774;28;20131;-84
2024/01/14 06:21:54;;;;;;;18.60;2.45;;;2.90;99.90;;;;;;5052942;28;20655;-84
2024/01/14 06:24:20;;;;;;;12.50;2.05;;;2.80;99.90;;;;;;5056614;28;20076;-84
2024/01/14 06:26:46;;;;;;;15.00;1.90;;;2.80;99.90;;;;;;5060108;28;20496;-82
2024/01/14 06:29:11;;;;;;;16.10;1.98;;;2.80;99.90;;;;;;5073330;28;20052;-84
2024/01/14 06:31:37;;;;;;;14.75;1.98;;;2.80;99.90;;;;;;5060621;28;20453;-84
2024/01/14 06:34:05;;;;;;;16.77;1.95;;;2.80;99.90;;;;;;5053762;28;20128;-84
2024/01/14 06:36:31;;;;;;;13.48;2.20;;;2.70;99.90;;;;;;5053660;28;20049;-84
2024/01/14 06:38:56;;;;;;;11.35;1.67;;;2.70;99.90;;;;;;5053070;28;20041;-86
2024/01/14 06:41:25;;;;;;;19.67;1.90;;;2.70;99.90;;;;;;5058232;28;20041;-85
2024/01/14 06:43:51;;;;;;;13.65;1.58;;;2.70;99.90;;;;;;5073857;28;20140;-82
2024/01/14 06:46:16;;;;;;;13.50;1.90;;;2.70;99.90;;;;;;5072728;28;20088;-82
2024/01/14 06:48:42;;;;;;;10.45;1.30;;;3.50;99.90;;;;;;5056335;28;20059;-82
2024/01/14 06:51:08;;;;;;;21.13;2.05;;;2.70;99.90;;;;;;5073159;28;20178;-82
2024/01/14 06:53:34;;;;;;;9.15;1.38;;;2.70;99.90;;;;;;5073577;28;20040;-81
2024/01/14 06:56:00;;;;;;;8.77;1.30;;;2.60;99.90;;;;;;5073012;28;20068;-82
2024/01/14 06:58:26;;;;;;;11.38;1.50;;;2.60;99.90;;;;;;5071641;28;20060;-83
2024/01/14 07:00:52;;;;;;;15.95;2.22;;;2.60;99.90;;;;;;5053746;28;20037;-83
2024/01/14 07:03:18;;;;;;;13.75;2.00;;;2.60;99.90;;;;;;5059388;28;20115;-82
2024/01/14 07:05:43;;;;;;;15.48;2.13;;;2.60;99.90;;;;;;5055430;28;20131;-82
2024/01/14 07:08:09;;;;;;;14.77;2.38;;;2.60;99.90;;;;;;5071600;28;20090;-82
2024/01/14 07:10:35;;;;;;;10.38;1.60;;;2.60;99.90;;;;;;5071753;28;20044;-80
2024/01/14 07:13:01;;;;;;;18.15;1.83;;;2.70;99.90;;;;;;5055583;28;20396;-82
2024/01/14 07:15:27;;;;;;;21.08;1.92;;;2.70;99.90;;;;;;5071806;28;20048;-83
2024/01/14 07:17:52;;;;;;;16.30;1.70;;;2.70;99.90;;;;;;5063439;28;20135;-83
2024/01/14 07:20:18;;;;;;;15.45;1.70;;;2.70;99.90;;;;;;5073622;28;20080;-84
2024/01/14 07:22:44;;;;;;;12.38;2.15;;;2.70;99.90;;;;;;5072566;28;20048;-84
2024/01/14 07:25:10;;;;;;;12.57;1.40;;;2.80;99.90;;;;;;5064217;28;20041;-84
2024/01/14 07:27:36;;;;;;;17.58;3.13;;;2.70;99.90;;;;;;5058309;28;20049;-83
2024/01/14 07:30:06;;;;;;;13.73;1.95;;;2.80;99.90;;;;;;5072239;28;20044;-83
2024/01/14 07:32:31;;;;;;;14.15;1.80;;;2.70;99.90;;;;;;5069523;28;20044;-83
2024/01/14 07:34:58;;;;;;;13.65;2.13;;;2.70;99.90;;;;;;5039182;28;21710;-87
2024/01/14 07:37:24;;;;;;;13.15;1.67;;;2.70;99.90;;;;;;5057441;28;20052;-80
2024/01/14 07:39:50;;;;;;;9.98;1.90;;;2.70;99.90;;;;;;5065552;28;20043;-83
2024/01/14 07:42:16;;;;;;;14.00;1.90;;;2.80;99.90;;;;;;5052964;28;20136;-81
2024/01/14 07:44:42;;;;;;;11.40;1.60;;;2.60;99.90;;;;;;5070533;28;20052;-82
2024/01/14 07:47:08;;;;;;;14.45;2.15;;;2.60;99.90;;;;;;5071326;28;20041;-82
2024/01/14 07:49:33;;;;;;;16.35;2.05;;;2.60;99.90;;;;;;5052727;28;20044;-84
2024/01/14 07:51:59;;;;;;;9.57;1.70;;;2.60;99.90;;;;;;5055193;28;20090;-83
2024/01/14 07:54:25;;;;;;;7.97;1.55;;;2.60;99.90;;;;;;5071291;28;20527;-82
2024/01/14 07:56:51;;;;;;;9.88;2.00;;;2.60;99.90;;;;;;5064428;28;20048;-84
2024/01/14 07:59:20;;;;;;;10.48;1.30;;;2.50;99.90;;;;;;5034445;28;20044;-81
2024/01/14 08:01:46;;;;;;;12.93;1.88;;;2.50;99.90;;;;;;5059283;28;20048;-82
2024/01/14 08:04:12;;;;;;;16.73;1.60;;;2.50;99.90;;;;;;5047805;28;20276;-81
2024/01/14 08:06:39;;;;;;;8.18;1.15;;;2.50;99.90;;;;;;5052343;28;20045;-82
2024/01/14 08:09:06;;;;;;;26.27;2.13;;;2.60;99.90;;;;;;5050988;28;20056;-81
2024/01/14 08:11:32;;;;;;;10.13;1.73;;;2.60;99.90;;;;;;5054586;28;20045;-84
2024/01/14 08:13:58;;;;;;;11.68;1.40;;;2.60;99.90;;;;;;5062174;28;20049;-83
2024/01/14 08:16:26;;;;;;;12.77;1.27;;;2.60;99.90;;;;;;5052043;28;20388;-84
2024/01/14 08:18:59;;;;;;;13.82;1.50;;;2.60;99.90;;;;;;5050993;28;20132;-85
2024/01/14 08:21:25;;;;;;;12.00;2.05;;;2.60;99.90;;;;;;5057812;28;20060;-81
2024/01/14 08:23:50;;;;;;;10.43;1.58;;;2.70;99.90;;;;;;5066003;28;20049;-86
2024/01/14 08:26:16;;;;;;;13.75;1.48;;;2.70;99.90;;;;;;5057314;28;20037;-82
2024/01/14 08:28:42;;;;;;;10.52;1.60;;;2.70;99.90;;;;;;5056262;28;20045;-83
2024/01/14 08:31:07;;;;;;;13.55;1.90;;;2.70;99.90;;;;;;5057266;28;20095;-83
2024/01/14 08:33:33;;;;;;;7.82;1.00;;;2.90;99.90;;;;;;5069598;28;20049;-83
2024/01/14 08:35:59;;;;;;;9.48;1.00;;;2.70;99.90;;;;;;5070684;28;20194;-82
2024/01/14 08:38:25;;;;;;;13.57;1.58;;;2.70;99.90;;;;;;5055918;28;20041;-83
2024/01/14 08:40:54;;;;;;;7.35;1.52;;;2.70;99.90;;;;;;5054678;28;20056;-83
2024/01/14 08:43:19;;;;;;;12.13;1.33;;;2.70;99.90;;;;;;5054774;28;20044;-84
2024/01/14 08:45:45;;;;;;;11.15;1.67;;;2.70;99.90;;;;;;5073838;28;20529;-82
2024/01/14 08:48:13;;;;;;;11.25;1.13;;;2.70;99.90;;;;;;5075677;28;20098;-82
2024/01/14 08:50:38;;;;;;;10.77;1.77;;;2.70;99.90;;;;;;5074381;28;20060;-82
2024/01/14 08:53:04;;;;;;;7.93;1.20;;;2.70;99.90;;;;;;5064239;28;20045;-82
2024/01/14 08:55:31;;;;;;;17.13;1.40;;;2.70;99.90;;;;;;5060515;28;20032;-83
2024/01/14 08:57:57;;;;;;;12.90;2.17;;;2.70;99.90;;;;;;5074711;28;20048;-82
2024/01/14 09:00:22;;;;;;;16.90;1.58;;;2.70;99.90;;;;;;5075736;28;20059;-83
2024/01/14 09:02:48;;;;;;;11.90;1.42;;;2.70;99.90;;;;;;5066367;28;20045;-83
2024/01/14 09:05:15;;;;;;;13.65;1.23;;;2.70;99.90;;;;;;5058717;28;20499;-83
2024/01/14 09:07:40;;;;;;;8.18;1.42;;;2.70;99.90;;;;;;5075836;28;20103;-83
2024/01/14 09:10:07;;;;;;;16.23;1.27;;;2.80;99.90;;;;;;5075532;28;20498;-83
2024/01/14 09:12:33;;;;;;;8.15;1.25;;;2.80;99.90;;;;;;5068178;28;20059;-84
2024/01/14 09:14:58;;;;;;;8.82;1.60;;;2.80;99.90;;;;;;5054536;28;20041;-82
2024/01/14 09:17:24;;;;;;;8.05;1.30;;;2.80;99.90;;;;;;5055426;28;20061;-83
2024/01/14 09:19:50;;;;;;;13.00;1.58;;;2.90;99.90;;;;;;5054390;28;20052;-83
2024/01/14 09:22:16;;;;;;;7.72;1.27;;;2.80;99.90;;;;;;5042257;28;20127;-84
2024/01/14 09:24:45;;;;;;;12.60;2.63;;;3.40;99.90;;;;;;5064031;28;20298;-85
2024/01/14 09:27:14;;;;;;;11.13;1.33;;;2.90;99.90;;;;;;5073602;28;20048;-84
2024/01/14 09:29:41;;;;;;;10.45;1.85;;;2.90;99.90;;;;;;5074968;28;20076;-84
2024/01/14 09:32:09;;;;;;;10.93;1.45;;;2.90;99.90;;;;;;5057939;28;20052;-83
2024/01/14 09:34:35;;;;;;;15.05;1.70;;;2.90;99.90;;;;;;5069762;28;20097;-84
2024/01/14 09:37:00;;;;;;;13.15;1.40;;;3.10;99.90;;;;;;5069240;28;20040;-87
2024/01/14 09:39:26;;;;;;;8.80;2.17;;;3.00;99.90;;;;;;5075878;28;20093;-85
2024/01/14 09:42:07;;;;;;;15.80;1.52;;;3.00;99.90;;;;;;5074800;28;20041;-84
2024/01/14 09:44:33;;;;;;;11.77;1.63;;;3.00;99.90;;;;;;5073278;28;20056;-87
2024/01/14 09:47:00;;;;;;;10.60;1.50;;;3.10;99.90;;;;;;5074654;28;20052;-87
2024/01/14 09:49:26;;;;;;;12.70;1.67;;;3.10;99.90;;;;;;5076044;28;20045;-86
2024/01/14 09:51:52;;;;;;;10.60;1.50;;;3.10;99.90;;;;;;5075217;28;20097;-86
2024/01/14 09:54:18;;;;;;;10.40;2.55;;;3.10;99.90;;;;;;5073665;28;20081;-85
2024/01/14 09:56:46;;;;;;;13.35;1.40;;;3.60;99.90;;;;;;5072461;28;20493;-85
2024/01/14 09:59:16;;;;;;;13.43;1.67;;;3.20;99.90;;;;;;5054550;28;20048;-82
2024/01/14 10:01:42;;;;;;;10.75;2.13;;;3.30;99.90;;;;;;5059920;28;20044;-82
2024/01/14 10:04:08;;;;;;;9.68;1.52;;;3.30;99.90;;;;;;5053583;28;20048;-82
2024/01/14 10:06:35;;;;;;;12.27;1.85;;;3.30;99.90;;;;;;5064733;28;20041;-81
2024/01/14 10:09:01;;;;;;;13.13;1.67;;;3.30;99.90;;;;;;5065671;28;20052;-83
2024/01/14 10:11:27;;;;;;;12.98;1.58;;;3.30;99.90;;;;;;5056778;28;20045;-84
2024/01/14 10:13:52;;;;;;;9.77;1.60;;;3.30;99.90;;;;;;5054114;28;20136;-83
2024/01/14 10:16:18;;;;;;;8.07;1.20;;;3.70;99.90;;;;;;5058800;28;20127;-83
2024/01/14 10:18:44;;;;;;;11.23;2.40;;;3.40;99.90;;;;;;5055377;28;20127;-84
2024/01/14 10:21:11;;;;;;;7.97;1.05;;;3.40;99.90;;;;;;5043003;28;20045;-84
2024/01/14 10:23:38;;;;;;;15.43;1.83;;;3.50;99.90;;;;;;5055243;28;20143;-84
2024/01/14 10:26:04;;;;;;;12.77;1.60;;;3.50;99.90;;;;;;5037175;28;20041;-84
2024/01/14 10:28:38;;;;;;;10.23;2.03;;;3.60;99.90;;;;;;5054417;28;20059;-84
2024/01/14 10:31:08;;;;;;;7.30;1.20;;;3.60;99.90;;;;;;5053027;28;20526;-84
2024/01/14 10:33:35;;;;;;;11.20;1.73;;;3.60;99.90;;;;;;5037285;28;20064;-86
2024/01/14 10:36:05;;;;;;;8.68;1.20;;;3.60;99.90;;;;;;5054345;28;20052;-84
2024/01/14 10:38:31;;;;;;;9.15;1.25;;;3.60;99.90;;;;;;5055106;28;20048;-86
2024/01/14 10:40:57;;;;;;;10.63;1.55;;;3.60;99.90;;;;;;5069571;28;20130;-88
2024/01/14 10:43:26;;;;;;;10.40;1.20;;;3.60;99.90;;;;;;5074092;28;20055;-87
2024/01/14 10:45:52;;;;;;;9.07;1.38;;;3.70;99.90;;;;;;5072822;28;20105;-87
2024/01/14 10:48:25;;;;;;;5.30;0.90;;;3.70;99.90;;;;;;5050931;28;20045;-86
2024/01/14 10:50:54;;;;;;;7.57;1.67;;;3.70;99.90;;;;;;5056248;28;20045;-88
2024/01/14 10:53:24;;;;;;;9.25;1.92;;;3.70;99.90;;;;;;5072783;28;20496;-90
2024/01/14 10:56:00;;;;;;;11.93;2.45;;;3.70;99.90;;;;;;5074172;28;20064;-84
2024/01/14 10:58:29;;;;;;;9.60;1.15;;;3.70;99.90;;;;;;5074531;28;20115;-85
2024/01/14 11:01:07;;;;;;;8.15;1.40;;;3.70;99.90;;;;;;5072327;28;20044;-84
2024/01/14 11:03:33;;;;;;;9.52;1.40;;;3.80;99.90;;;;;;5073550;28;20052;-89
2024/01/14 11:05:59;;;;;;;7.68;1.17;;;3.80;99.90;;;;;;5054904;28;20045;-84
2024/01/14 11:08:26;;;;;;;8.20;1.50;;;3.80;99.90;;;;;;5054675;28;20060;-91
2024/01/14 11:10:53;;;;;;;17.45;1.73;;;3.80;99.90;;;;;;5053306;28;20077;-86
2024/01/14 11:13:36;;;;;;;7.72;1.02;;;3.80;99.90;;;;;;5065960;28;20094;-84
2024/01/14 11:16:23;;;;;;;11.90;1.98;;;3.80;99.90;;;;;;5070340;28;20048;-87
2024/01/14 11:19:01;;;;;;;9.73;1.30;;;3.80;99.90;;;;;;5060836;28;20045;-84
2024/01/14 11:22:06;;;;;;;11.55;1.23;;;3.90;99.90;;;;;;5070935;28;20056;-83
2024/01/14 11:24:31;;;;;;;14.40;2.08;;;3.90;99.90;;;;;;5072158;28;20045;-83
2024/01/14 11:26:57;;;;;;;9.90;1.55;;;4.00;99.90;;;;;;5070986;28;20045;-83
2024/01/14 11:29:33;;;;;;;11.15;1.20;;;4.00;99.90;;;;;;5063284;28;20105;-83
2024/01/14 11:32:20;;;;;;;12.20;1.33;;;4.10;99.90;;;;;;5052536;28;20045;-84
2024/01/14 11:34:52;;;;;;;8.63;1.63;;;4.10;99.90;;;;;;5053431;28;20044;-84
2024/01/14 11:37:29;;;;;;;11.25;1.35;;;4.20;99.90;;;;;;5065700;28;20051;-85
2024/01/14 11:40:28;;;;;;;14.70;2.05;;;4.20;99.90;;;;;;5071015;28;20053;-85
2024/01/14 11:43:01;;;;;;;10.18;2.38;;;4.40;99.90;;;;;;5069599;28;20072;-85
2024/01/14 11:45:26;;;;;;;9.15;1.17;;;4.20;99.90;;;;;;5072120;28;20037;-84
2024/01/14 11:47:54;;;;;;;9.35;1.40;;;4.20;99.90;;;;;;5070735;28;20434;-85
2024/01/14 11:50:20;;;;;;;4.88;1.17;;;4.20;99.90;;;;;;5059335;28;20103;-85
2024/01/14 11:52:49;;;;;;;8.43;1.20;;;4.50;99.90;;;;;;5050278;28;20044;-83
2024/01/14 11:55:23;;;;;;;9.63;1.38;;;4.20;99.90;;;;;;5050257;28;20333;-84
2024/01/14 11:57:49;;;;;;;6.05;1.25;;;4.10;99.90;;;;;;5052619;28;20052;-85
2024/01/14 12:00:17;;;;;;;7.13;2.17;;;4.20;99.90;;;;;;5066507;28;20049;-83
2024/01/14 12:02:42;;;;;;;6.03;1.52;;;4.20;99.90;;;;;;5051574;28;20063;-84
2024/01/14 12:05:21;;;;;;;10.90;1.55;;;4.20;99.90;;;;;;5053617;28;20044;-85
2024/01/14 12:07:48;;;;;;;7.93;1.98;;;4.20;99.90;;;;;;5062217;28;20056;-85
2024/01/14 12:10:21;;;;;;;9.32;1.33;;;4.30;99.90;;;;;;5051349;28;20052;-85
2024/01/14 12:12:46;;;;;;;9.68;2.00;;;4.40;99.90;;;;;;5051551;28;20126;-85
2024/01/14 12:15:14;;;;;;;12.00;1.10;;;4.40;99.90;;;;;;5050287;28;20090;-85
2024/01/14 12:17:51;;;;;;;11.10;1.25;;;4.40;99.90;;;;;;5061330;28;20049;-85
2024/01/14 12:20:24;;;;;;;5.93;0.68;;;4.50;99.90;;;;;;5052601;28;20502;-85
2024/01/14 12:23:02;;;;;;;8.50;1.10;;;4.50;99.90;;;;;;5054286;28;20059;-86
2024/01/14 12:25:28;;;;;;;11.85;1.40;;;4.50;99.90;;;;;;5070543;28;20056;-85
2024/01/14 12:27:54;;;;;;;6.68;1.20;;;4.50;99.90;;;;;;5070281;28;20040;-85
2024/01/14 12:30:34;;;;;;;15.07;2.08;;;4.60;99.90;;;;;;5050274;28;20415;-85
2024/01/14 12:33:08;;;;;;;6.70;0.90;;;4.60;99.90;;;;;;5070280;28;20112;-85
2024/01/14 12:35:35;;;;;;;11.00;1.40;;;4.70;99.90;;;;;;5070098;28;20051;-84
2024/01/14 12:38:03;;;;;;;8.02;1.20;;;4.80;99.90;;;;;;5066089;28;20045;-86
2024/01/14 12:40:29;;;;;;;9.13;1.10;;;4.80;99.90;;;;;;5068858;28;20047;-85
2024/01/14 12:42:54;;;;;;;7.78;1.08;;;4.70;99.90;;;;;;5070433;28;20151;-86
2024/01/14 12:45:20;;;;;;;4.57;1.20;;;4.80;99.90;;;;;;5064249;28;20080;-85
2024/01/14 12:47:58;;;;;;;8.40;0.85;;;4.80;99.90;;;;;;5055365;28;20058;-85
2024/01/14 12:50:29;;;;;;;5.07;0.80;;;4.80;99.90;;;;;;5065250;28;20495;-85